sensor_id;sensor_type;location;lat;lon;timestamp;P1;durP1;ratioP1;P2;durP2;ratioP2
19235;SDS011;9752;54.270;12.470;2023-04-25T00:01:37;15.80;;;13.33;;
19235;SDS011;9752;54.270;12.470;2023-04-25T00:06:40;14.53;;;12.17;;
19235;SDS011;9752;54.270;12.470;2023-04-25T00:11:41;15.97;;;11.80;;
19235;SDS011;9752;54.270;12.470;2023-04-25T00:16:43;15.93;;;10.77;;
19235;SDS011;9752;54.270;12.470;2023-04-25T00:21:47;11.73;;;10.10;;
19235;SDS011;9752;54.270;12.470;2023-04-25T00:26:49;10.33;;;9.20;;
19235;SDS011;9752;54.270;12.470;2023-04-25T00:31:50;13.33;;;8.73;;
19235;SDS011;9752;54.270;12.470;2023-04-25T00:36:53;10.77;;;7.87;;
19235;SDS011;9752;54.270;12.470;2023-04-25T00:41:55;8.43;;;7.60;;
19235;SDS011;9752;54.270;12.470;2023-04-25T00:46:59;9.87;;;8.50;;
19235;SDS011;9752;54.270;12.470;2023-04-25T00:52:04;12.87;;;8.80;;
19235;SDS011;9752;54.270;12.470;2023-04-25T00:57:06;10.40;;;8.63;;
19235;SDS011;9752;54.270;12.470;2023-04-25T01:02:08;13.90;;;8.27;;
19235;SDS011;9752;54.270;12.470;2023-04-25T01:07:11;17.73;;;9.53;;
19235;SDS011;9752;54.270;12.470;2023-04-25T01:12:13;17.20;;;9.93;;
19235;SDS011;9752;54.270;12.470;2023-04-25T01:17:15;14.63;;;9.10;;
19235;SDS011;9752;54.270;12.470;2023-04-25T01:22:20;14.47;;;9.03;;
19235;SDS011;9752;54.270;12.470;2023-04-25T01:27:22;17.37;;;9.90;;
19235;SDS011;9752;54.270;12.470;2023-04-25T01:32:24;11.73;;;10.33;;
19235;SDS011;9752;54.270;12.470;2023-04-25T01:37:27;16.93;;;9.43;;
19235;SDS011;9752;54.270;12.470;2023-04-25T01:42:29;16.40;;;10.20;;
19235;SDS011;9752;54.270;12.470;2023-04-25T01:47:30;19.33;;;10.03;;
19235;SDS011;9752;54.270;12.470;2023-04-25T01:52:34;10.80;;;8.63;;
19235;SDS011;9752;54.270;12.470;2023-04-25T01:57:36;13.57;;;9.10;;
19235;SDS011;9752;54.270;12.470;2023-04-25T02:02:38;14.70;;;8.87;;
19235;SDS011;9752;54.270;12.470;2023-04-25T02:07:51;11.63;;;9.00;;
19235;SDS011;9752;54.270;12.470;2023-04-25T02:12:52;16.37;;;9.80;;
19235;SDS011;9752;54.270;12.470;2023-04-25T02:18:10;18.00;;;10.10;;
19235;SDS011;9752;54.270;12.470;2023-04-25T02:23:15;14.90;;;8.60;;
19235;SDS011;9752;54.270;12.470;2023-04-25T02:28:19;15.73;;;8.77;;
19235;SDS011;9752;54.270;12.470;2023-04-25T02:33:20;16.50;;;9.63;;
19235;SDS011;9752;54.270;12.470;2023-04-25T02:38:23;21.10;;;10.53;;
19235;SDS011;9752;54.270;12.470;2023-04-25T02:43:25;14.50;;;9.47;;
19235;SDS011;9752;54.270;12.470;2023-04-25T02:48:27;19.43;;;10.77;;
19235;SDS011;9752;54.270;12.470;2023-04-25T02:53:30;17.83;;;9.63;;
19235;SDS011;9752;54.270;12.470;2023-04-25T02:58:32;11.40;;;9.33;;
19235;SDS011;9752;54.270;12.470;2023-04-25T03:03:34;18.67;;;11.13;;
19235;SDS011;9752;54.270;12.470;2023-04-25T03:08:37;16.53;;;10.83;;
19235;SDS011;9752;54.270;12.470;2023-04-25T03:13:39;14.87;;;11.30;;
19235;SDS011;9752;54.270;12.470;2023-04-25T03:18:42;15.47;;;11.03;;
19235;SDS011;9752;54.270;12.470;2023-04-25T03:23:45;16.83;;;11.73;;
19235;SDS011;9752;54.270;12.470;2023-04-25T03:28:47;16.07;;;11.00;;
19235;SDS011;9752;54.270;12.470;2023-04-25T03:33:49;11.63;;;10.00;;
19235;SDS011;9752;54.270;12.470;2023-04-25T03:38:55;13.70;;;10.33;;
19235;SDS011;9752;54.270;12.470;2023-04-25T03:43:57;22.10;;;11.07;;
19235;SDS011;9752;54.270;12.470;2023-04-25T03:49:01;14.90;;;10.67;;
19235;SDS011;9752;54.270;12.470;2023-04-25T03:54:23;19.27;;;12.10;;
19235;SDS011;9752;54.270;12.470;2023-04-25T03:59:39;22.47;;;9.77;;
19235;SDS011;9752;54.270;12.470;2023-04-25T04:04:44;16.37;;;9.33;;
19235;SDS011;9752;54.270;12.470;2023-04-25T04:09:47;21.07;;;10.70;;
19235;SDS011;9752;54.270;12.470;2023-04-25T04:14:57;15.93;;;10.80;;
19235;SDS011;9752;54.270;12.470;2023-04-25T04:20:00;22.27;;;10.70;;
19235;SDS011;9752;54.270;12.470;2023-04-25T04:25:07;13.83;;;9.77;;
19235;SDS011;9752;54.270;12.470;2023-04-25T04:30:36;16.87;;;9.90;;
19235;SDS011;9752;54.270;12.470;2023-04-25T04:35:41;15.20;;;10.57;;
19235;SDS011;9752;54.270;12.470;2023-04-25T04:40:45;17.40;;;10.63;;
19235;SDS011;9752;54.270;12.470;2023-04-25T04:45:56;20.87;;;10.00;;
19235;SDS011;9752;54.270;12.470;2023-04-25T04:50:58;15.93;;;9.80;;
19235;SDS011;9752;54.270;12.470;2023-04-25T04:56:39;13.90;;;10.33;;
19235;SDS011;9752;54.270;12.470;2023-04-25T05:02:01;13.97;;;10.57;;
19235;SDS011;9752;54.270;12.470;2023-04-25T05:07:11;27.63;;;12.07;;
19235;SDS011;9752;54.270;12.470;2023-04-25T05:12:24;14.43;;;9.63;;
19235;SDS011;9752;54.270;12.470;2023-04-25T05:17:44;17.63;;;9.60;;
19235;SDS011;9752;54.270;12.470;2023-04-25T05:22:46;27.30;;;11.87;;
19235;SDS011;9752;54.270;12.470;2023-04-25T05:28:10;23.53;;;13.07;;
19235;SDS011;9752;54.270;12.470;2023-04-25T05:33:32;20.50;;;12.10;;
19235;SDS011;9752;54.270;12.470;2023-04-25T05:38:35;17.63;;;11.80;;
19235;SDS011;9752;54.270;12.470;2023-04-25T05:43:56;23.13;;;13.30;;
19235;SDS011;9752;54.270;12.470;2023-04-25T05:49:08;22.03;;;14.20;;
19235;SDS011;9752;54.270;12.470;2023-04-25T05:54:17;34.17;;;15.33;;
19235;SDS011;9752;54.270;12.470;2023-04-25T05:59:20;24.00;;;13.60;;
19235;SDS011;9752;54.270;12.470;2023-04-25T06:04:21;28.07;;;13.77;;
19235;SDS011;9752;54.270;12.470;2023-04-25T06:09:24;22.57;;;14.60;;
19235;SDS011;9752;54.270;12.470;2023-04-25T06:14:29;24.27;;;15.67;;
19235;SDS011;9752;54.270;12.470;2023-04-25T06:19:30;23.03;;;14.17;;
19235;SDS011;9752;54.270;12.470;2023-04-25T06:24:32;21.97;;;14.10;;
19235;SDS011;9752;54.270;12.470;2023-04-25T06:29:38;19.77;;;14.20;;
19235;SDS011;9752;54.270;12.470;2023-04-25T06:34:40;30.53;;;14.80;;
19235;SDS011;9752;54.270;12.470;2023-04-25T06:39:42;28.57;;;14.37;;
19235;SDS011;9752;54.270;12.470;2023-04-25T06:44:46;24.33;;;15.73;;
19235;SDS011;9752;54.270;12.470;2023-04-25T06:49:48;21.13;;;15.90;;
19235;SDS011;9752;54.270;12.470;2023-04-25T06:54:50;27.97;;;16.90;;
19235;SDS011;9752;54.270;12.470;2023-04-25T07:00:14;26.17;;;16.03;;
19235;SDS011;9752;54.270;12.470;2023-04-25T07:05:16;26.90;;;17.13;;
19235;SDS011;9752;54.270;12.470;2023-04-25T07:10:18;23.37;;;17.33;;
19235;SDS011;9752;54.270;12.470;2023-04-25T07:15:23;28.10;;;18.40;;
19235;SDS011;9752;54.270;12.470;2023-04-25T07:20:25;24.60;;;17.17;;
19235;SDS011;9752;54.270;12.470;2023-04-25T07:25:29;23.33;;;18.47;;
19235;SDS011;9752;54.270;12.470;2023-04-25T07:30:33;28.13;;;17.47;;
19235;SDS011;9752;54.270;12.470;2023-04-25T07:35:37;23.10;;;17.70;;
19235;SDS011;9752;54.270;12.470;2023-04-25T07:40:40;21.87;;;16.43;;
19235;SDS011;9752;54.270;12.470;2023-04-25T07:45:44;20.47;;;17.03;;
19235;SDS011;9752;54.270;12.470;2023-04-25T07:50:48;18.23;;;16.43;;
19235;SDS011;9752;54.270;12.470;2023-04-25T07:55:50;28.63;;;17.83;;
19235;SDS011;9752;54.270;12.470;2023-04-25T08:00:55;21.90;;;19.17;;
19235;SDS011;9752;54.270;12.470;2023-04-25T08:06:17;19.10;;;17.17;;
19235;SDS011;9752;54.270;12.470;2023-04-25T08:11:39;22.60;;;17.93;;
19235;SDS011;9752;54.270;12.470;2023-04-25T08:16:44;20.13;;;18.10;;
19235;SDS011;9752;54.270;12.470;2023-04-25T08:21:47;23.93;;;18.30;;
19235;SDS011;9752;54.270;12.470;2023-04-25T08:26:54;19.70;;;17.33;;
19235;SDS011;9752;54.270;12.470;2023-04-25T08:32:00;27.20;;;17.33;;
19235;SDS011;9752;54.270;12.470;2023-04-25T08:37:03;23.27;;;18.27;;
19235;SDS011;9752;54.270;12.470;2023-04-25T08:42:24;24.87;;;17.33;;
19235;SDS011;9752;54.270;12.470;2023-04-25T08:47:27;26.20;;;17.50;;
19235;SDS011;9752;54.270;12.470;2023-04-25T08:52:39;27.13;;;17.77;;
19235;SDS011;9752;54.270;12.470;2023-04-25T08:57:46;21.47;;;19.13;;
19235;SDS011;9752;54.270;12.470;2023-04-25T09:02:52;21.23;;;17.83;;
19235;SDS011;9752;54.270;12.470;2023-04-25T09:07:54;20.33;;;17.10;;
19235;SDS011;9752;54.270;12.470;2023-04-25T09:13:04;19.07;;;17.10;;
19235;SDS011;9752;54.270;12.470;2023-04-25T09:18:23;21.03;;;16.73;;
19235;SDS011;9752;54.270;12.470;2023-04-25T09:23:28;20.17;;;18.20;;
19235;SDS011;9752;54.270;12.470;2023-04-25T09:28:31;18.20;;;16.37;;
19235;SDS011;9752;54.270;12.470;2023-04-25T09:33:36;24.63;;;17.80;;
19235;SDS011;9752;54.270;12.470;2023-04-25T09:38:41;21.83;;;17.33;;
19235;SDS011;9752;54.270;12.470;2023-04-25T09:44:02;19.20;;;17.40;;
19235;SDS011;9752;54.270;12.470;2023-04-25T09:49:08;18.07;;;16.37;;
19235;SDS011;9752;54.270;12.470;2023-04-25T09:54:19;19.27;;;17.67;;
19235;SDS011;9752;54.270;12.470;2023-04-25T09:59:23;19.63;;;17.67;;
19235;SDS011;9752;54.270;12.470;2023-04-25T10:04:26;25.07;;;18.20;;
19235;SDS011;9752;54.270;12.470;2023-04-25T10:09:55;17.53;;;16.10;;
19235;SDS011;9752;54.270;12.470;2023-04-25T10:15:00;24.77;;;17.33;;
19235;SDS011;9752;54.270;12.470;2023-04-25T10:20:06;26.37;;;17.90;;
19235;SDS011;9752;54.270;12.470;2023-04-25T10:25:10;19.77;;;17.70;;
19235;SDS011;9752;54.270;12.470;2023-04-25T10:30:13;19.93;;;17.30;;
19235;SDS011;9752;54.270;12.470;2023-04-25T10:35:18;21.50;;;18.63;;
19235;SDS011;9752;54.270;12.470;2023-04-25T10:40:25;25.40;;;18.97;;
19235;SDS011;9752;54.270;12.470;2023-04-25T10:45:27;18.63;;;16.90;;
19235;SDS011;9752;54.270;12.470;2023-04-25T10:50:38;21.53;;;17.27;;
19235;SDS011;9752;54.270;12.470;2023-04-25T10:55:49;21.57;;;18.00;;
19235;SDS011;9752;54.270;12.470;2023-04-25T11:00:50;21.20;;;17.00;;
19235;SDS011;9752;54.270;12.470;2023-04-25T11:05:54;22.00;;;17.40;;
19235;SDS011;9752;54.270;12.470;2023-04-25T11:10:55;19.10;;;16.93;;
19235;SDS011;9752;54.270;12.470;2023-04-25T11:15:57;22.13;;;16.23;;
19235;SDS011;9752;54.270;12.470;2023-04-25T11:21:01;18.87;;;16.77;;
19235;SDS011;9752;54.270;12.470;2023-04-25T11:26:04;18.47;;;16.57;;
19235;SDS011;9752;54.270;12.470;2023-04-25T11:31:05;17.13;;;15.40;;
19235;SDS011;9752;54.270;12.470;2023-04-25T11:36:08;16.47;;;15.17;;
19235;SDS011;9752;54.270;12.470;2023-04-25T11:41:11;16.87;;;15.50;;
19235;SDS011;9752;54.270;12.470;2023-04-25T11:46:12;22.97;;;16.50;;
19235;SDS011;9752;54.270;12.470;2023-04-25T11:51:16;22.73;;;16.53;;
19235;SDS011;9752;54.270;12.470;2023-04-25T11:56:18;20.93;;;15.70;;
19235;SDS011;9752;54.270;12.470;2023-04-25T12:01:25;17.57;;;15.97;;
19235;SDS011;9752;54.270;12.470;2023-04-25T12:06:29;23.20;;;16.03;;
19235;SDS011;9752;54.270;12.470;2023-04-25T12:11:31;17.60;;;15.70;;
19235;SDS011;9752;54.270;12.470;2023-04-25T12:16:39;20.87;;;16.53;;
19235;SDS011;9752;54.270;12.470;2023-04-25T12:21:44;17.47;;;15.80;;
19235;SDS011;9752;54.270;12.470;2023-04-25T12:26:49;17.90;;;16.33;;
19235;SDS011;9752;54.270;12.470;2023-04-25T12:31:53;19.50;;;16.73;;
19235;SDS011;9752;54.270;12.470;2023-04-25T12:36:56;22.90;;;16.47;;
19235;SDS011;9752;54.270;12.470;2023-04-25T12:41:58;19.87;;;16.30;;
19235;SDS011;9752;54.270;12.470;2023-04-25T12:47:00;20.20;;;15.50;;
19235;SDS011;9752;54.270;12.470;2023-04-25T12:52:04;18.67;;;15.93;;
19235;SDS011;9752;54.270;12.470;2023-04-25T12:57:06;18.53;;;16.83;;
19235;SDS011;9752;54.270;12.470;2023-04-25T13:02:08;17.13;;;15.73;;
19235;SDS011;9752;54.270;12.470;2023-04-25T13:07:11;18.23;;;15.83;;
19235;SDS011;9752;54.270;12.470;2023-04-25T13:12:12;17.33;;;16.00;;
19235;SDS011;9752;54.270;12.470;2023-04-25T13:17:15;23.57;;;18.27;;
19235;SDS011;9752;54.270;12.470;2023-04-25T13:22:18;26.43;;;16.47;;
19235;SDS011;9752;54.270;12.470;2023-04-25T13:27:20;21.57;;;16.10;;
19235;SDS011;9752;54.270;12.470;2023-04-25T13:32:22;20.47;;;16.10;;
19235;SDS011;9752;54.270;12.470;2023-04-25T13:37:25;18.13;;;16.60;;
19235;SDS011;9752;54.270;12.470;2023-04-25T13:42:26;17.53;;;15.50;;
19235;SDS011;9752;54.270;12.470;2023-04-25T13:47:28;17.50;;;15.50;;
19235;SDS011;9752;54.270;12.470;2023-04-25T13:52:32;20.30;;;16.43;;
19235;SDS011;9752;54.270;12.470;2023-04-25T13:57:34;19.77;;;15.80;;
19235;SDS011;9752;54.270;12.470;2023-04-25T14:02:37;15.33;;;13.97;;
19235;SDS011;9752;54.270;12.470;2023-04-25T14:07:40;26.67;;;16.00;;
19235;SDS011;9752;54.270;12.470;2023-04-25T14:12:42;16.33;;;14.77;;
19235;SDS011;9752;54.270;12.470;2023-04-25T14:17:44;16.50;;;14.80;;
19235;SDS011;9752;54.270;12.470;2023-04-25T14:22:47;15.30;;;14.03;;
19235;SDS011;9752;54.270;12.470;2023-04-25T14:27:49;15.63;;;14.40;;
19235;SDS011;9752;54.270;12.470;2023-04-25T14:32:51;16.90;;;15.00;;
19235;SDS011;9752;54.270;12.470;2023-04-25T14:37:54;27.37;;;16.80;;
19235;SDS011;9752;54.270;12.470;2023-04-25T14:42:55;18.30;;;16.67;;
19235;SDS011;9752;54.270;12.470;2023-04-25T14:47:57;16.13;;;14.83;;
19235;SDS011;9752;54.270;12.470;2023-04-25T14:53:00;15.10;;;14.10;;
19235;SDS011;9752;54.270;12.470;2023-04-25T14:58:02;18.07;;;16.47;;
19235;SDS011;9752;54.270;12.470;2023-04-25T15:03:04;18.83;;;16.83;;
19235;SDS011;9752;54.270;12.470;2023-04-25T15:08:07;18.83;;;16.60;;
19235;SDS011;9752;54.270;12.470;2023-04-25T15:13:09;18.43;;;15.77;;
19235;SDS011;9752;54.270;12.470;2023-04-25T15:18:11;17.13;;;15.73;;
19235;SDS011;9752;54.270;12.470;2023-04-25T15:23:15;17.90;;;15.90;;
19235;SDS011;9752;54.270;12.470;2023-04-25T15:28:17;19.93;;;14.40;;
19235;SDS011;9752;54.270;12.470;2023-04-25T15:33:18;17.57;;;14.87;;
19235;SDS011;9752;54.270;12.470;2023-04-25T15:38:21;16.10;;;14.57;;
19235;SDS011;9752;54.270;12.470;2023-04-25T15:43:23;17.37;;;15.87;;
19235;SDS011;9752;54.270;12.470;2023-04-25T15:48:26;19.83;;;16.27;;
19235;SDS011;9752;54.270;12.470;2023-04-25T15:53:29;24.03;;;16.83;;
19235;SDS011;9752;54.270;12.470;2023-04-25T15:58:30;18.20;;;14.97;;
19235;SDS011;9752;54.270;12.470;2023-04-25T16:03:32;17.23;;;15.47;;
19235;SDS011;9752;54.270;12.470;2023-04-25T16:08:35;19.07;;;16.27;;
19235;SDS011;9752;54.270;12.470;2023-04-25T16:13:37;21.70;;;16.30;;
19235;SDS011;9752;54.270;12.470;2023-04-25T16:18:38;24.37;;;16.77;;
19235;SDS011;9752;54.270;12.470;2023-04-25T16:23:41;19.33;;;15.33;;
19235;SDS011;9752;54.270;12.470;2023-04-25T16:28:43;17.77;;;15.93;;
19235;SDS011;9752;54.270;12.470;2023-04-25T16:33:45;22.13;;;15.77;;
19235;SDS011;9752;54.270;12.470;2023-04-25T16:38:48;16.83;;;15.17;;
19235;SDS011;9752;54.270;12.470;2023-04-25T16:43:50;15.23;;;13.93;;
19235;SDS011;9752;54.270;12.470;2023-04-25T16:48:51;16.93;;;14.83;;
19235;SDS011;9752;54.270;12.470;2023-04-25T16:53:54;15.33;;;14.13;;
19235;SDS011;9752;54.270;12.470;2023-04-25T16:58:56;18.47;;;15.50;;
19235;SDS011;9752;54.270;12.470;2023-04-25T17:03:58;17.90;;;16.00;;
19235;SDS011;9752;54.270;12.470;2023-04-25T17:09:01;20.03;;;15.13;;
19235;SDS011;9752;54.270;12.470;2023-04-25T17:14:05;18.50;;;14.33;;
19235;SDS011;9752;54.270;12.470;2023-04-25T17:19:07;24.07;;;14.63;;
19235;SDS011;9752;54.270;12.470;2023-04-25T17:24:10;18.03;;;13.70;;
19235;SDS011;9752;54.270;12.470;2023-04-25T17:29:14;21.60;;;13.73;;
19235;SDS011;9752;54.270;12.470;2023-04-25T17:34:16;14.37;;;13.30;;
19235;SDS011;9752;54.270;12.470;2023-04-25T17:39:19;15.50;;;14.03;;
19235;SDS011;9752;54.270;12.470;2023-04-25T17:44:21;23.00;;;14.43;;
19235;SDS011;9752;54.270;12.470;2023-04-25T17:49:23;21.73;;;14.27;;
19235;SDS011;9752;54.270;12.470;2023-04-25T17:54:26;17.17;;;13.73;;
19235;SDS011;9752;54.270;12.470;2023-04-25T17:59:28;15.67;;;12.40;;
19235;SDS011;9752;54.270;12.470;2023-04-25T18:04:29;16.37;;;12.30;;
19235;SDS011;9752;54.270;12.470;2023-04-25T18:09:33;17.63;;;13.23;;
19235;SDS011;9752;54.270;12.470;2023-04-25T18:14:35;18.50;;;13.07;;
19235;SDS011;9752;54.270;12.470;2023-04-25T18:19:36;21.03;;;13.77;;
19235;SDS011;9752;54.270;12.470;2023-04-25T18:24:39;17.80;;;13.77;;
19235;SDS011;9752;54.270;12.470;2023-04-25T18:29:41;20.37;;;13.37;;
19235;SDS011;9752;54.270;12.470;2023-04-25T18:34:44;24.80;;;15.53;;
19235;SDS011;9752;54.270;12.470;2023-04-25T18:39:50;23.47;;;14.43;;
19235;SDS011;9752;54.270;12.470;2023-04-25T18:44:52;17.73;;;15.10;;
19235;SDS011;9752;54.270;12.470;2023-04-25T18:49:53;23.57;;;14.80;;
19235;SDS011;9752;54.270;12.470;2023-04-25T18:54:56;20.20;;;15.33;;
19235;SDS011;9752;54.270;12.470;2023-04-25T18:59:58;25.07;;;14.97;;
19235;SDS011;9752;54.270;12.470;2023-04-25T19:05:06;18.40;;;14.40;;
19235;SDS011;9752;54.270;12.470;2023-04-25T19:10:10;17.43;;;14.43;;
19235;SDS011;9752;54.270;12.470;2023-04-25T19:15:12;15.93;;;14.27;;
19235;SDS011;9752;54.270;12.470;2023-04-25T19:20:14;21.13;;;14.07;;
19235;SDS011;9752;54.270;12.470;2023-04-25T19:25:17;17.27;;;15.07;;
19235;SDS011;9752;54.270;12.470;2023-04-25T19:30:19;25.63;;;15.00;;
19235;SDS011;9752;54.270;12.470;2023-04-25T19:35:21;22.33;;;15.60;;
19235;SDS011;9752;54.270;12.470;2023-04-25T19:40:24;15.73;;;13.73;;
19235;SDS011;9752;54.270;12.470;2023-04-25T19:45:26;16.73;;;13.77;;
19235;SDS011;9752;54.270;12.470;2023-04-25T19:50:28;17.57;;;14.07;;
19235;SDS011;9752;54.270;12.470;2023-04-25T19:55:31;20.70;;;14.60;;
19235;SDS011;9752;54.270;12.470;2023-04-25T20:00:33;20.50;;;15.43;;
19235;SDS011;9752;54.270;12.470;2023-04-25T20:05:35;21.40;;;16.10;;
19235;SDS011;9752;54.270;12.470;2023-04-25T20:10:38;16.23;;;14.70;;
19235;SDS011;9752;54.270;12.470;2023-04-25T20:15:39;17.13;;;15.47;;
19235;SDS011;9752;54.270;12.470;2023-04-25T20:20:41;14.37;;;12.97;;
19235;SDS011;9752;54.270;12.470;2023-04-25T20:25:44;14.40;;;12.93;;
19235;SDS011;9752;54.270;12.470;2023-04-25T20:30:46;16.90;;;14.13;;
19235;SDS011;9752;54.270;12.470;2023-04-25T20:35:48;20.87;;;14.83;;
19235;SDS011;9752;54.270;12.470;2023-04-25T20:40:51;19.63;;;16.43;;
19235;SDS011;9752;54.270;12.470;2023-04-25T20:45:54;19.33;;;16.83;;
19235;SDS011;9752;54.270;12.470;2023-04-25T20:50:57;19.73;;;15.17;;
19235;SDS011;9752;54.270;12.470;2023-04-25T20:56:00;21.13;;;13.60;;
19235;SDS011;9752;54.270;12.470;2023-04-25T21:01:03;19.93;;;15.20;;
19235;SDS011;9752;54.270;12.470;2023-04-25T21:06:05;18.47;;;16.63;;
19235;SDS011;9752;54.270;12.470;2023-04-25T21:11:09;20.03;;;17.27;;
19235;SDS011;9752;54.270;12.470;2023-04-25T21:16:11;18.90;;;14.33;;
19235;SDS011;9752;54.270;12.470;2023-04-25T21:21:13;15.10;;;13.23;;
19235;SDS011;9752;54.270;12.470;2023-04-25T21:26:16;15.90;;;13.30;;
19235;SDS011;9752;54.270;12.470;2023-04-25T21:31:17;13.70;;;12.60;;
19235;SDS011;9752;54.270;12.470;2023-04-25T21:36:19;15.73;;;13.77;;
19235;SDS011;9752;54.270;12.470;2023-04-25T21:41:22;12.90;;;11.80;;
19235;SDS011;9752;54.270;12.470;2023-04-25T21:46:25;19.00;;;11.70;;
19235;SDS011;9752;54.270;12.470;2023-04-25T21:51:27;19.03;;;12.70;;
19235;SDS011;9752;54.270;12.470;2023-04-25T21:56:32;22.13;;;11.87;;
19235;SDS011;9752;54.270;12.470;2023-04-25T22:01:34;15.53;;;11.97;;
19235;SDS011;9752;54.270;12.470;2023-04-25T22:06:35;17.93;;;11.30;;
19235;SDS011;9752;54.270;12.470;2023-04-25T22:11:38;15.80;;;11.97;;
19235;SDS011;9752;54.270;12.470;2023-04-25T22:16:42;15.47;;;10.87;;
19235;SDS011;9752;54.270;12.470;2023-04-25T22:21:43;15.43;;;11.23;;
19235;SDS011;9752;54.270;12.470;2023-04-25T22:26:46;13.07;;;10.63;;
19235;SDS011;9752;54.270;12.470;2023-04-25T22:31:48;14.80;;;11.60;;
19235;SDS011;9752;54.270;12.470;2023-04-25T22:36:50;11.40;;;10.47;;
19235;SDS011;9752;54.270;12.470;2023-04-25T22:41:53;18.43;;;11.33;;
19235;SDS011;9752;54.270;12.470;2023-04-25T22:46:55;18.80;;;11.83;;
19235;SDS011;9752;54.270;12.470;2023-04-25T22:51:56;14.57;;;11.50;;
19235;SDS011;9752;54.270;12.470;2023-04-25T22:56:59;17.67;;;11.43;;
19235;SDS011;9752;54.270;12.470;2023-04-25T23:02:01;11.00;;;9.93;;
19235;SDS011;9752;54.270;12.470;2023-04-25T23:07:03;19.83;;;11.90;;
19235;SDS011;9752;54.270;12.470;2023-04-25T23:12:06;17.97;;;11.70;;
19235;SDS011;9752;54.270;12.470;2023-04-25T23:17:08;21.20;;;11.63;;
19235;SDS011;9752;54.270;12.470;2023-04-25T23:22:10;15.47;;;13.77;;
19235;SDS011;9752;54.270;12.470;2023-04-25T23:27:13;18.50;;;16.67;;
19235;SDS011;9752;54.270;12.470;2023-04-25T23:32:15;17.20;;;15.33;;
19235;SDS011;9752;54.270;12.470;2023-04-25T23:37:17;20.67;;;16.60;;
19235;SDS011;9752;54.270;12.470;2023-04-25T23:42:20;18.47;;;15.67;;
19235;SDS011;9752;54.270;12.470;2023-04-25T23:47:22;17.30;;;15.30;;
19235;SDS011;9752;54.270;12.470;2023-04-25T23:52:24;19.47;;;17.53;;
19235;SDS011;9752;54.270;12.470;2023-04-25T23:57:28;19.00;;;17.40;;
